sensor_id;sensor_type;location;lat;lon;timestamp;P1;durP1;ratioP1;P2;durP2;ratioP2
29352;SDS011;16344;50.364;8.944;2023-02-01T00:01:54;11.73;;;5.75;;
29352;SDS011;16344;50.364;8.944;2023-02-01T00:04:20;13.98;;;5.85;;
29352;SDS011;16344;50.364;8.944;2023-02-01T00:06:46;14.10;;;6.25;;
29352;SDS011;16344;50.364;8.944;2023-02-01T00:09:12;10.18;;;6.35;;
29352;SDS011;16344;50.364;8.944;2023-02-01T00:11:38;9.82;;;6.40;;
29352;SDS011;16344;50.364;8.944;2023-02-01T00:14:04;13.68;;;6.25;;
29352;SDS011;16344;50.364;8.944;2023-02-01T00:16:30;13.80;;;6.72;;
29352;SDS011;16344;50.364;8.944;2023-02-01T00:19:00;18.98;;;6.78;;
29352;SDS011;16344;50.364;8.944;2023-02-01T00:21:28;10.75;;;6.20;;
29352;SDS011;16344;50.364;8.944;2023-02-01T00:23:55;17.02;;;6.97;;
29352;SDS011;16344;50.364;8.944;2023-02-01T00:26:31;12.20;;;6.15;;
29352;SDS011;16344;50.364;8.944;2023-02-01T00:28:59;18.02;;;6.10;;
29352;SDS011;16344;50.364;8.944;2023-02-01T00:31:25;15.48;;;6.85;;
29352;SDS011;16344;50.364;8.944;2023-02-01T00:33:51;14.02;;;7.55;;
29352;SDS011;16344;50.364;8.944;2023-02-01T00:36:17;15.27;;;6.63;;
29352;SDS011;16344;50.364;8.944;2023-02-01T00:38:42;20.58;;;6.60;;
29352;SDS011;16344;50.364;8.944;2023-02-01T00:41:12;18.55;;;6.72;;
29352;SDS011;16344;50.364;8.944;2023-02-01T00:43:43;22.08;;;6.78;;
29352;SDS011;16344;50.364;8.944;2023-02-01T00:46:09;16.58;;;6.45;;
29352;SDS011;16344;50.364;8.944;2023-02-01T00:48:35;14.82;;;6.30;;
29352;SDS011;16344;50.364;8.944;2023-02-01T00:51:06;12.32;;;7.35;;
29352;SDS011;16344;50.364;8.944;2023-02-01T00:53:33;14.23;;;6.15;;
29352;SDS011;16344;50.364;8.944;2023-02-01T00:55:59;11.88;;;6.53;;
29352;SDS011;16344;50.364;8.944;2023-02-01T00:58:25;9.80;;;6.40;;
29352;SDS011;16344;50.364;8.944;2023-02-01T01:03:33;19.20;;;7.80;;
29352;SDS011;16344;50.364;8.944;2023-02-01T01:06:00;20.05;;;7.68;;
29352;SDS011;16344;50.364;8.944;2023-02-01T01:08:28;14.90;;;7.22;;
29352;SDS011;16344;50.364;8.944;2023-02-01T01:10:54;15.93;;;7.07;;
29352;SDS011;16344;50.364;8.944;2023-02-01T01:13:20;19.90;;;8.55;;
29352;SDS011;16344;50.364;8.944;2023-02-01T01:15:45;28.77;;;9.45;;
29352;SDS011;16344;50.364;8.944;2023-02-01T01:18:11;17.27;;;8.25;;
29352;SDS011;16344;50.364;8.944;2023-02-01T01:20:37;20.33;;;8.95;;
29352;SDS011;16344;50.364;8.944;2023-02-01T01:23:05;18.88;;;9.18;;
29352;SDS011;16344;50.364;8.944;2023-02-01T01:25:31;20.17;;;9.70;;
29352;SDS011;16344;50.364;8.944;2023-02-01T01:27:57;14.68;;;9.15;;
29352;SDS011;16344;50.364;8.944;2023-02-01T01:30:23;17.38;;;9.77;;
29352;SDS011;16344;50.364;8.944;2023-02-01T01:32:48;25.25;;;9.20;;
29352;SDS011;16344;50.364;8.944;2023-02-01T01:35:14;18.85;;;9.93;;
29352;SDS011;16344;50.364;8.944;2023-02-01T01:37:40;21.27;;;10.27;;
29352;SDS011;16344;50.364;8.944;2023-02-01T01:40:06;22.63;;;10.45;;
29352;SDS011;16344;50.364;8.944;2023-02-01T01:42:39;20.27;;;11.45;;
29352;SDS011;16344;50.364;8.944;2023-02-01T01:45:25;28.48;;;10.73;;
29352;SDS011;16344;50.364;8.944;2023-02-01T01:47:57;21.00;;;10.30;;
29352;SDS011;16344;50.364;8.944;2023-02-01T01:50:30;20.15;;;10.80;;
29352;SDS011;16344;50.364;8.944;2023-02-01T01:52:59;24.77;;;9.95;;
29352;SDS011;16344;50.364;8.944;2023-02-01T01:55:28;18.55;;;9.27;;
29352;SDS011;16344;50.364;8.944;2023-02-01T01:58:02;18.60;;;8.65;;
29352;SDS011;16344;50.364;8.944;2023-02-01T02:00:31;23.58;;;9.57;;
29352;SDS011;16344;50.364;8.944;2023-02-01T02:03:03;18.45;;;9.80;;
29352;SDS011;16344;50.364;8.944;2023-02-01T02:05:44;15.43;;;9.93;;
29352;SDS011;16344;50.364;8.944;2023-02-01T02:08:11;21.52;;;10.07;;
29352;SDS011;16344;50.364;8.944;2023-02-01T02:10:37;22.75;;;10.40;;
29352;SDS011;16344;50.364;8.944;2023-02-01T02:13:21;27.42;;;10.45;;
29352;SDS011;16344;50.364;8.944;2023-02-01T02:15:52;22.65;;;10.02;;
29352;SDS011;16344;50.364;8.944;2023-02-01T02:21:49;18.70;;;10.82;;
29352;SDS011;16344;50.364;8.944;2023-02-01T02:24:43;24.20;;;11.73;;
29352;SDS011;16344;50.364;8.944;2023-02-01T02:42:29;26.95;;;12.25;;
29352;SDS011;16344;50.364;8.944;2023-02-01T02:45:36;20.77;;;12.57;;
29352;SDS011;16344;50.364;8.944;2023-02-01T02:48:36;26.52;;;11.68;;
29352;SDS011;16344;50.364;8.944;2023-02-01T02:51:13;21.42;;;11.25;;
29352;SDS011;16344;50.364;8.944;2023-02-01T02:54:08;22.25;;;11.50;;
29352;SDS011;16344;50.364;8.944;2023-02-01T02:56:56;21.00;;;11.30;;
29352;SDS011;16344;50.364;8.944;2023-02-01T02:59:44;19.50;;;11.52;;
29352;SDS011;16344;50.364;8.944;2023-02-01T03:02:30;25.92;;;12.02;;
29352;SDS011;16344;50.364;8.944;2023-02-01T03:05:15;20.58;;;10.27;;
29352;SDS011;16344;50.364;8.944;2023-02-01T03:13:25;18.67;;;10.57;;
29352;SDS011;16344;50.364;8.944;2023-02-01T03:21:32;20.92;;;9.80;;
29352;SDS011;16344;50.364;8.944;2023-02-01T03:24:09;26.15;;;10.30;;
29352;SDS011;16344;50.364;8.944;2023-02-01T03:26:41;25.13;;;9.70;;
29352;SDS011;16344;50.364;8.944;2023-02-01T03:29:18;22.45;;;9.15;;
29352;SDS011;16344;50.364;8.944;2023-02-01T03:31:49;21.30;;;9.13;;
29352;SDS011;16344;50.364;8.944;2023-02-01T03:34:15;24.08;;;8.75;;
29352;SDS011;16344;50.364;8.944;2023-02-01T03:36:43;17.08;;;7.18;;
29352;SDS011;16344;50.364;8.944;2023-02-01T03:41:58;29.58;;;9.07;;
29352;SDS011;16344;50.364;8.944;2023-02-01T03:44:29;33.65;;;9.57;;
29352;SDS011;16344;50.364;8.944;2023-02-01T03:47:07;31.02;;;6.72;;
29352;SDS011;16344;50.364;8.944;2023-02-01T03:52:03;31.88;;;6.68;;
29352;SDS011;16344;50.364;8.944;2023-02-01T03:54:32;21.10;;;5.97;;
29352;SDS011;16344;50.364;8.944;2023-02-01T03:56:59;26.17;;;6.78;;
29352;SDS011;16344;50.364;8.944;2023-02-01T03:59:29;21.52;;;6.05;;
29352;SDS011;16344;50.364;8.944;2023-02-01T04:01:55;20.40;;;5.53;;
29352;SDS011;16344;50.364;8.944;2023-02-01T04:04:20;34.05;;;6.28;;
29352;SDS011;16344;50.364;8.944;2023-02-01T04:06:47;27.08;;;6.18;;
29352;SDS011;16344;50.364;8.944;2023-02-01T04:09:13;26.10;;;5.88;;
29352;SDS011;16344;50.364;8.944;2023-02-01T04:11:38;21.80;;;6.05;;
29352;SDS011;16344;50.364;8.944;2023-02-01T04:14:04;24.55;;;5.82;;
29352;SDS011;16344;50.364;8.944;2023-02-01T04:16:30;15.65;;;6.38;;
29352;SDS011;16344;50.364;8.944;2023-02-01T04:18:56;25.40;;;6.55;;
29352;SDS011;16344;50.364;8.944;2023-02-01T04:21:23;25.00;;;5.18;;
29352;SDS011;16344;50.364;8.944;2023-02-01T04:23:49;27.98;;;5.30;;
29352;SDS011;16344;50.364;8.944;2023-02-01T04:26:15;28.85;;;5.30;;
29352;SDS011;16344;50.364;8.944;2023-02-01T04:28:41;28.02;;;6.10;;
29352;SDS011;16344;50.364;8.944;2023-02-01T04:31:07;23.77;;;5.50;;
29352;SDS011;16344;50.364;8.944;2023-02-01T04:33:32;27.00;;;4.55;;
29352;SDS011;16344;50.364;8.944;2023-02-01T04:35:58;29.10;;;5.75;;
29352;SDS011;16344;50.364;8.944;2023-02-01T04:38:23;21.65;;;5.25;;
29352;SDS011;16344;50.364;8.944;2023-02-01T04:40:49;17.67;;;4.68;;
29352;SDS011;16344;50.364;8.944;2023-02-01T04:43:15;26.27;;;5.28;;
29352;SDS011;16344;50.364;8.944;2023-02-01T04:45:46;22.10;;;5.25;;
29352;SDS011;16344;50.364;8.944;2023-02-01T04:48:12;24.85;;;4.65;;
29352;SDS011;16344;50.364;8.944;2023-02-01T04:50:37;26.20;;;5.57;;
29352;SDS011;16344;50.364;8.944;2023-02-01T04:53:03;26.45;;;4.93;;
29352;SDS011;16344;50.364;8.944;2023-02-01T04:55:28;19.77;;;4.72;;
29352;SDS011;16344;50.364;8.944;2023-02-01T04:57:54;23.33;;;5.15;;
29352;SDS011;16344;50.364;8.944;2023-02-01T05:00:20;17.35;;;5.00;;
29352;SDS011;16344;50.364;8.944;2023-02-01T05:02:46;27.88;;;5.90;;
29352;SDS011;16344;50.364;8.944;2023-02-01T05:05:11;27.90;;;5.57;;
29352;SDS011;16344;50.364;8.944;2023-02-01T05:07:37;19.90;;;5.22;;
29352;SDS011;16344;50.364;8.944;2023-02-01T05:10:02;25.13;;;5.50;;
29352;SDS011;16344;50.364;8.944;2023-02-01T05:12:28;30.20;;;6.15;;
29352;SDS011;16344;50.364;8.944;2023-02-01T05:15:12;27.38;;;5.88;;
29352;SDS011;16344;50.364;8.944;2023-02-01T05:17:38;22.75;;;5.07;;
29352;SDS011;16344;50.364;8.944;2023-02-01T05:20:05;26.75;;;6.03;;
29352;SDS011;16344;50.364;8.944;2023-02-01T05:22:32;17.67;;;5.65;;
29352;SDS011;16344;50.364;8.944;2023-02-01T05:24:57;22.70;;;5.55;;
29352;SDS011;16344;50.364;8.944;2023-02-01T05:27:23;23.00;;;5.57;;
29352;SDS011;16344;50.364;8.944;2023-02-01T05:29:48;24.85;;;6.53;;
29352;SDS011;16344;50.364;8.944;2023-02-01T05:32:14;37.75;;;5.80;;
29352;SDS011;16344;50.364;8.944;2023-02-01T05:34:39;26.80;;;5.90;;
29352;SDS011;16344;50.364;8.944;2023-02-01T05:37:05;15.73;;;5.97;;
29352;SDS011;16344;50.364;8.944;2023-02-01T05:39:30;26.80;;;5.93;;
29352;SDS011;16344;50.364;8.944;2023-02-01T05:41:56;17.88;;;6.13;;
29352;SDS011;16344;50.364;8.944;2023-02-01T05:44:21;18.10;;;5.68;;
29352;SDS011;16344;50.364;8.944;2023-02-01T05:46:47;28.33;;;6.53;;
29352;SDS011;16344;50.364;8.944;2023-02-01T05:49:12;20.80;;;6.00;;
29352;SDS011;16344;50.364;8.944;2023-02-01T05:51:38;24.75;;;5.85;;
29352;SDS011;16344;50.364;8.944;2023-02-01T05:54:03;32.33;;;6.50;;
29352;SDS011;16344;50.364;8.944;2023-02-01T05:56:29;25.73;;;6.30;;
29352;SDS011;16344;50.364;8.944;2023-02-01T05:58:54;20.50;;;5.60;;
29352;SDS011;16344;50.364;8.944;2023-02-01T06:01:20;42.95;;;6.45;;
29352;SDS011;16344;50.364;8.944;2023-02-01T06:03:45;36.10;;;5.82;;
29352;SDS011;16344;50.364;8.944;2023-02-01T06:06:11;32.92;;;5.68;;
29352;SDS011;16344;50.364;8.944;2023-02-01T06:08:36;24.02;;;5.28;;
29352;SDS011;16344;50.364;8.944;2023-02-01T06:11:05;19.95;;;5.25;;
29352;SDS011;16344;50.364;8.944;2023-02-01T06:13:31;25.75;;;5.55;;
29352;SDS011;16344;50.364;8.944;2023-02-01T06:15:57;32.22;;;7.07;;
29352;SDS011;16344;50.364;8.944;2023-02-01T06:18:23;24.08;;;5.18;;
29352;SDS011;16344;50.364;8.944;2023-02-01T06:20:56;23.30;;;4.97;;
29352;SDS011;16344;50.364;8.944;2023-02-01T06:23:24;28.20;;;5.45;;
29352;SDS011;16344;50.364;8.944;2023-02-01T06:25:50;23.77;;;5.65;;
29352;SDS011;16344;50.364;8.944;2023-02-01T06:28:17;25.77;;;4.72;;
29352;SDS011;16344;50.364;8.944;2023-02-01T06:30:42;30.08;;;5.30;;
29352;SDS011;16344;50.364;8.944;2023-02-01T06:33:11;31.42;;;5.47;;
29352;SDS011;16344;50.364;8.944;2023-02-01T06:35:39;31.13;;;5.60;;
29352;SDS011;16344;50.364;8.944;2023-02-01T06:38:06;29.77;;;5.50;;
29352;SDS011;16344;50.364;8.944;2023-02-01T06:40:31;35.20;;;5.53;;
29352;SDS011;16344;50.364;8.944;2023-02-01T06:42:57;35.75;;;6.07;;
29352;SDS011;16344;50.364;8.944;2023-02-01T06:45:23;24.63;;;5.25;;
29352;SDS011;16344;50.364;8.944;2023-02-01T06:47:48;20.50;;;5.80;;
29352;SDS011;16344;50.364;8.944;2023-02-01T06:50:14;31.00;;;5.55;;
29352;SDS011;16344;50.364;8.944;2023-02-01T06:52:40;30.88;;;4.93;;
29352;SDS011;16344;50.364;8.944;2023-02-01T06:55:06;31.85;;;5.05;;
29352;SDS011;16344;50.364;8.944;2023-02-01T06:57:31;25.08;;;4.97;;
29352;SDS011;16344;50.364;8.944;2023-02-01T06:59:59;39.10;;;5.93;;
29352;SDS011;16344;50.364;8.944;2023-02-01T07:02:24;36.33;;;5.35;;
29352;SDS011;16344;50.364;8.944;2023-02-01T07:04:50;29.58;;;5.03;;
29352;SDS011;16344;50.364;8.944;2023-02-01T07:07:15;23.08;;;5.05;;
29352;SDS011;16344;50.364;8.944;2023-02-01T07:09:41;27.02;;;4.85;;
29352;SDS011;16344;50.364;8.944;2023-02-01T07:12:07;53.25;;;7.80;;
29352;SDS011;16344;50.364;8.944;2023-02-01T07:14:32;38.70;;;5.40;;
29352;SDS011;16344;50.364;8.944;2023-02-01T07:16:58;23.80;;;5.22;;
29352;SDS011;16344;50.364;8.944;2023-02-01T07:19:23;28.70;;;5.75;;
29352;SDS011;16344;50.364;8.944;2023-02-01T07:21:49;39.83;;;6.38;;
29352;SDS011;16344;50.364;8.944;2023-02-01T07:24:14;28.27;;;6.07;;
29352;SDS011;16344;50.364;8.944;2023-02-01T07:26:40;26.02;;;4.10;;
29352;SDS011;16344;50.364;8.944;2023-02-01T07:29:06;28.95;;;5.22;;
29352;SDS011;16344;50.364;8.944;2023-02-01T07:31:31;37.90;;;5.32;;
29352;SDS011;16344;50.364;8.944;2023-02-01T07:33:57;26.80;;;4.80;;
29352;SDS011;16344;50.364;8.944;2023-02-01T07:36:23;41.50;;;5.32;;
29352;SDS011;16344;50.364;8.944;2023-02-01T07:38:49;31.48;;;5.90;;
29352;SDS011;16344;50.364;8.944;2023-02-01T07:41:16;30.67;;;3.80;;
29352;SDS011;16344;50.364;8.944;2023-02-01T07:43:42;31.35;;;5.60;;
29352;SDS011;16344;50.364;8.944;2023-02-01T07:46:09;34.40;;;4.63;;
29352;SDS011;16344;50.364;8.944;2023-02-01T07:48:35;31.75;;;5.32;;
29352;SDS011;16344;50.364;8.944;2023-02-01T07:51:02;45.28;;;6.20;;
29352;SDS011;16344;50.364;8.944;2023-02-01T07:53:33;33.60;;;4.30;;
29352;SDS011;16344;50.364;8.944;2023-02-01T07:55:59;35.15;;;5.80;;
29352;SDS011;16344;50.364;8.944;2023-02-01T07:58:26;32.58;;;5.00;;
29352;SDS011;16344;50.364;8.944;2023-02-01T08:00:52;23.92;;;4.93;;
29352;SDS011;16344;50.364;8.944;2023-02-01T08:03:37;33.00;;;6.18;;
29352;SDS011;16344;50.364;8.944;2023-02-01T08:06:03;45.08;;;6.80;;
29352;SDS011;16344;50.364;8.944;2023-02-01T08:08:29;23.38;;;4.15;;
29352;SDS011;16344;50.364;8.944;2023-02-01T08:10:58;41.40;;;4.38;;
29352;SDS011;16344;50.364;8.944;2023-02-01T08:13:24;35.00;;;5.10;;
29352;SDS011;16344;50.364;8.944;2023-02-01T08:15:50;34.22;;;5.43;;
29352;SDS011;16344;50.364;8.944;2023-02-01T08:18:15;33.28;;;4.65;;
29352;SDS011;16344;50.364;8.944;2023-02-01T08:20:42;24.83;;;4.05;;
29352;SDS011;16344;50.364;8.944;2023-02-01T08:23:12;27.83;;;4.25;;
29352;SDS011;16344;50.364;8.944;2023-02-01T08:25:38;37.25;;;4.97;;
29352;SDS011;16344;50.364;8.944;2023-02-01T08:28:04;37.05;;;5.10;;
29352;SDS011;16344;50.364;8.944;2023-02-01T08:30:30;32.05;;;4.88;;
29352;SDS011;16344;50.364;8.944;2023-02-01T08:32:56;31.08;;;5.00;;
29352;SDS011;16344;50.364;8.944;2023-02-01T08:35:22;36.78;;;5.45;;
29352;SDS011;16344;50.364;8.944;2023-02-01T08:37:49;39.42;;;5.78;;
29352;SDS011;16344;50.364;8.944;2023-02-01T08:40:15;22.85;;;3.95;;
29352;SDS011;16344;50.364;8.944;2023-02-01T08:42:41;33.70;;;5.30;;
29352;SDS011;16344;50.364;8.944;2023-02-01T08:45:16;29.92;;;4.80;;
29352;SDS011;16344;50.364;8.944;2023-02-01T08:47:50;30.25;;;4.18;;
29352;SDS011;16344;50.364;8.944;2023-02-01T08:50:17;24.33;;;5.20;;
29352;SDS011;16344;50.364;8.944;2023-02-01T08:52:43;24.00;;;5.72;;
29352;SDS011;16344;50.364;8.944;2023-02-01T08:55:09;27.50;;;4.68;;
29352;SDS011;16344;50.364;8.944;2023-02-01T08:57:35;24.75;;;4.38;;
29352;SDS011;16344;50.364;8.944;2023-02-01T09:00:01;25.52;;;4.60;;
29352;SDS011;16344;50.364;8.944;2023-02-01T09:02:27;39.40;;;5.25;;
29352;SDS011;16344;50.364;8.944;2023-02-01T09:04:53;30.92;;;5.30;;
29352;SDS011;16344;50.364;8.944;2023-02-01T09:07:18;27.50;;;5.05;;
29352;SDS011;16344;50.364;8.944;2023-02-01T09:09:44;32.92;;;5.38;;
29352;SDS011;16344;50.364;8.944;2023-02-01T09:12:10;32.60;;;5.18;;
29352;SDS011;16344;50.364;8.944;2023-02-01T09:14:36;31.40;;;6.22;;
29352;SDS011;16344;50.364;8.944;2023-02-01T09:17:01;35.85;;;4.93;;
29352;SDS011;16344;50.364;8.944;2023-02-01T09:19:27;27.45;;;5.57;;
29352;SDS011;16344;50.364;8.944;2023-02-01T09:21:53;30.98;;;6.53;;
29352;SDS011;16344;50.364;8.944;2023-02-01T09:24:19;37.15;;;4.97;;
29352;SDS011;16344;50.364;8.944;2023-02-01T09:26:45;35.33;;;5.10;;
29352;SDS011;16344;50.364;8.944;2023-02-01T09:29:10;31.23;;;5.50;;
29352;SDS011;16344;50.364;8.944;2023-02-01T09:31:36;37.95;;;6.53;;
29352;SDS011;16344;50.364;8.944;2023-02-01T09:34:03;23.10;;;5.70;;
29352;SDS011;16344;50.364;8.944;2023-02-01T09:36:29;38.97;;;4.50;;
29352;SDS011;16344;50.364;8.944;2023-02-01T09:38:55;39.55;;;6.35;;
29352;SDS011;16344;50.364;8.944;2023-02-01T09:41:42;31.67;;;5.82;;
29352;SDS011;16344;50.364;8.944;2023-02-01T09:44:13;40.00;;;5.53;;
29352;SDS011;16344;50.364;8.944;2023-02-01T09:46:59;41.58;;;5.15;;
29352;SDS011;16344;50.364;8.944;2023-02-01T09:49:32;23.73;;;4.90;;
29352;SDS011;16344;50.364;8.944;2023-02-01T09:52:03;34.40;;;5.22;;
29352;SDS011;16344;50.364;8.944;2023-02-01T09:54:40;28.55;;;4.88;;
29352;SDS011;16344;50.364;8.944;2023-02-01T09:57:11;27.95;;;4.63;;
29352;SDS011;16344;50.364;8.944;2023-02-01T09:59:44;33.72;;;5.43;;
29352;SDS011;16344;50.364;8.944;2023-02-01T10:02:15;43.17;;;5.45;;
29352;SDS011;16344;50.364;8.944;2023-02-01T10:04:45;37.85;;;5.90;;
29352;SDS011;16344;50.364;8.944;2023-02-01T10:07:18;42.72;;;5.88;;
29352;SDS011;16344;50.364;8.944;2023-02-01T10:10:12;26.10;;;4.63;;
29352;SDS011;16344;50.364;8.944;2023-02-01T10:13:05;32.78;;;8.18;;
29352;SDS011;16344;50.364;8.944;2023-02-01T10:15:44;35.25;;;5.93;;
29352;SDS011;16344;50.364;8.944;2023-02-01T10:27:21;34.50;;;6.50;;
29352;SDS011;16344;50.364;8.944;2023-02-01T10:30:06;26.70;;;6.25;;
29352;SDS011;16344;50.364;8.944;2023-02-01T10:32:38;32.67;;;6.47;;
29352;SDS011;16344;50.364;8.944;2023-02-01T10:35:16;38.35;;;7.47;;
29352;SDS011;16344;50.364;8.944;2023-02-01T10:37:53;29.17;;;4.75;;
29352;SDS011;16344;50.364;8.944;2023-02-01T10:40:24;33.67;;;5.43;;
29352;SDS011;16344;50.364;8.944;2023-02-01T10:42:54;31.45;;;5.88;;
29352;SDS011;16344;50.364;8.944;2023-02-01T10:45:27;27.95;;;5.50;;
29352;SDS011;16344;50.364;8.944;2023-02-01T10:47:58;35.75;;;4.55;;
29352;SDS011;16344;50.364;8.944;2023-02-01T10:55:48;31.67;;;6.00;;
29352;SDS011;16344;50.364;8.944;2023-02-01T10:58:19;28.95;;;3.97;;
29352;SDS011;16344;50.364;8.944;2023-02-01T11:00:54;24.02;;;5.47;;
29352;SDS011;16344;50.364;8.944;2023-02-01T11:05:59;26.65;;;4.40;;
29352;SDS011;16344;50.364;8.944;2023-02-01T11:08:27;22.10;;;4.22;;
29352;SDS011;16344;50.364;8.944;2023-02-01T11:10:57;25.88;;;3.67;;
29352;SDS011;16344;50.364;8.944;2023-02-01T11:13:27;29.23;;;5.00;;
29352;SDS011;16344;50.364;8.944;2023-02-01T11:15:55;31.85;;;5.13;;
29352;SDS011;16344;50.364;8.944;2023-02-01T11:18:28;23.10;;;3.88;;
29352;SDS011;16344;50.364;8.944;2023-02-01T11:20:56;26.02;;;4.63;;
29352;SDS011;16344;50.364;8.944;2023-02-01T11:23:24;27.48;;;5.20;;
29352;SDS011;16344;50.364;8.944;2023-02-01T11:25:58;26.33;;;4.18;;
29352;SDS011;16344;50.364;8.944;2023-02-01T11:28:32;34.13;;;5.30;;
29352;SDS011;16344;50.364;8.944;2023-02-01T11:31:00;26.88;;;4.70;;
29352;SDS011;16344;50.364;8.944;2023-02-01T11:33:30;17.52;;;3.50;;
29352;SDS011;16344;50.364;8.944;2023-02-01T11:36:00;28.83;;;4.47;;
29352;SDS011;16344;50.364;8.944;2023-02-01T11:38:32;34.33;;;6.13;;
29352;SDS011;16344;50.364;8.944;2023-02-01T11:41:12;18.50;;;3.97;;
29352;SDS011;16344;50.364;8.944;2023-02-01T11:43:52;32.90;;;3.93;;
29352;SDS011;16344;50.364;8.944;2023-02-01T11:46:22;30.92;;;4.68;;
29352;SDS011;16344;50.364;8.944;2023-02-01T11:48:53;23.73;;;3.80;;
29352;SDS011;16344;50.364;8.944;2023-02-01T11:54:25;27.33;;;4.90;;
29352;SDS011;16344;50.364;8.944;2023-02-01T11:57:10;24.08;;;3.83;;
29352;SDS011;16344;50.364;8.944;2023-02-01T12:10:47;32.75;;;6.55;;
29352;SDS011;16344;50.364;8.944;2023-02-01T12:13:47;34.15;;;5.15;;
29352;SDS011;16344;50.364;8.944;2023-02-01T12:19:23;25.30;;;4.57;;
29352;SDS011;16344;50.364;8.944;2023-02-01T12:22:29;31.70;;;4.13;;
29352;SDS011;16344;50.364;8.944;2023-02-01T12:25:52;20.92;;;4.57;;
29352;SDS011;16344;50.364;8.944;2023-02-01T12:28:35;20.55;;;4.05;;
29352;SDS011;16344;50.364;8.944;2023-02-01T12:31:20;35.30;;;4.40;;
29352;SDS011;16344;50.364;8.944;2023-02-01T12:34:26;27.30;;;4.53;;
29352;SDS011;16344;50.364;8.944;2023-02-01T12:42:40;17.60;;;3.92;;
29352;SDS011;16344;50.364;8.944;2023-02-01T12:45:19;35.90;;;4.13;;
29352;SDS011;16344;50.364;8.944;2023-02-01T12:47:52;25.20;;;4.50;;
29352;SDS011;16344;50.364;8.944;2023-02-01T12:50:24;32.40;;;4.60;;
29352;SDS011;16344;50.364;8.944;2023-02-01T12:53:01;26.75;;;3.85;;
29352;SDS011;16344;50.364;8.944;2023-02-01T12:55:35;20.52;;;3.30;;
29352;SDS011;16344;50.364;8.944;2023-02-01T12:58:07;33.08;;;4.05;;
29352;SDS011;16344;50.364;8.944;2023-02-01T13:00:46;21.85;;;4.00;;
29352;SDS011;16344;50.364;8.944;2023-02-01T13:06:01;23.77;;;4.00;;
29352;SDS011;16344;50.364;8.944;2023-02-01T13:11:15;32.95;;;4.90;;
29352;SDS011;16344;50.364;8.944;2023-02-01T13:17:09;19.30;;;3.38;;
29352;SDS011;16344;50.364;8.944;2023-02-01T13:22:12;21.85;;;3.30;;
29352;SDS011;16344;50.364;8.944;2023-02-01T13:24:47;24.58;;;3.88;;
29352;SDS011;16344;50.364;8.944;2023-02-01T13:27:15;28.00;;;3.70;;
29352;SDS011;16344;50.364;8.944;2023-02-01T13:29:48;20.17;;;4.68;;
29352;SDS011;16344;50.364;8.944;2023-02-01T13:32:22;22.67;;;3.30;;
29352;SDS011;16344;50.364;8.944;2023-02-01T13:35:03;28.17;;;4.10;;
29352;SDS011;16344;50.364;8.944;2023-02-01T13:43:04;32.75;;;4.20;;
29352;SDS011;16344;50.364;8.944;2023-02-01T13:45:41;21.45;;;3.25;;
29352;SDS011;16344;50.364;8.944;2023-02-01T13:48:20;29.10;;;4.35;;
29352;SDS011;16344;50.364;8.944;2023-02-01T13:50:53;32.03;;;4.00;;
29352;SDS011;16344;50.364;8.944;2023-02-01T13:53:23;27.10;;;3.60;;
29352;SDS011;16344;50.364;8.944;2023-02-01T13:56:03;24.10;;;3.13;;
29352;SDS011;16344;50.364;8.944;2023-02-01T13:58:35;21.43;;;3.30;;
29352;SDS011;16344;50.364;8.944;2023-02-01T14:03:50;31.90;;;5.93;;
29352;SDS011;16344;50.364;8.944;2023-02-01T14:19:35;22.55;;;3.63;;
29352;SDS011;16344;50.364;8.944;2023-02-01T14:22:35;25.08;;;3.38;;
29352;SDS011;16344;50.364;8.944;2023-02-01T14:24:58;26.20;;;3.75;;
29352;SDS011;16344;50.364;8.944;2023-02-01T14:27:24;18.48;;;3.70;;
29352;SDS011;16344;50.364;8.944;2023-02-01T14:29:59;20.15;;;3.72;;
29352;SDS011;16344;50.364;8.944;2023-02-01T14:32:31;25.85;;;3.80;;
29352;SDS011;16344;50.364;8.944;2023-02-01T14:35:00;21.17;;;2.87;;
29352;SDS011;16344;50.364;8.944;2023-02-01T14:37:32;26.25;;;4.07;;
29352;SDS011;16344;50.364;8.944;2023-02-01T14:42:43;17.10;;;4.10;;
29352;SDS011;16344;50.364;8.944;2023-02-01T15:00:53;27.10;;;4.57;;
29352;SDS011;16344;50.364;8.944;2023-02-01T15:09:07;24.20;;;3.33;;
29352;SDS011;16344;50.364;8.944;2023-02-01T15:14:28;22.88;;;4.22;;
29352;SDS011;16344;50.364;8.944;2023-02-01T15:17:02;26.40;;;3.30;;
29352;SDS011;16344;50.364;8.944;2023-02-01T15:19:29;24.25;;;4.05;;
29352;SDS011;16344;50.364;8.944;2023-02-01T15:21:56;23.73;;;2.97;;
29352;SDS011;16344;50.364;8.944;2023-02-01T15:26:49;17.13;;;4.03;;
29352;SDS011;16344;50.364;8.944;2023-02-01T15:29:16;22.00;;;3.60;;
29352;SDS011;16344;50.364;8.944;2023-02-01T15:31:50;31.38;;;4.25;;
29352;SDS011;16344;50.364;8.944;2023-02-01T15:34:17;25.58;;;3.88;;
29352;SDS011;16344;50.364;8.944;2023-02-01T15:36:44;17.35;;;3.33;;
29352;SDS011;16344;50.364;8.944;2023-02-01T15:39:15;27.40;;;4.60;;
29352;SDS011;16344;50.364;8.944;2023-02-01T15:41:57;27.17;;;3.60;;
29352;SDS011;16344;50.364;8.944;2023-02-01T15:44:38;24.95;;;3.30;;
29352;SDS011;16344;50.364;8.944;2023-02-01T15:49:45;29.67;;;5.00;;
29352;SDS011;16344;50.364;8.944;2023-02-01T15:52:26;23.20;;;3.17;;
29352;SDS011;16344;50.364;8.944;2023-02-01T15:54:59;26.30;;;4.20;;
29352;SDS011;16344;50.364;8.944;2023-02-01T15:57:34;27.55;;;3.88;;
29352;SDS011;16344;50.364;8.944;2023-02-01T16:00:05;15.57;;;3.45;;
29352;SDS011;16344;50.364;8.944;2023-02-01T16:02:37;17.58;;;3.63;;
29352;SDS011;16344;50.364;8.944;2023-02-01T16:08:16;26.83;;;3.97;;
29352;SDS011;16344;50.364;8.944;2023-02-01T16:10:47;25.50;;;3.63;;
29352;SDS011;16344;50.364;8.944;2023-02-01T16:13:14;26.25;;;5.07;;
29352;SDS011;16344;50.364;8.944;2023-02-01T16:15:41;18.25;;;3.88;;
29352;SDS011;16344;50.364;8.944;2023-02-01T16:18:07;20.75;;;3.55;;
29352;SDS011;16344;50.364;8.944;2023-02-01T16:20:34;21.90;;;3.38;;
29352;SDS011;16344;50.364;8.944;2023-02-01T16:23:02;29.48;;;6.75;;
29352;SDS011;16344;50.364;8.944;2023-02-01T16:25:28;31.73;;;4.75;;
29352;SDS011;16344;50.364;8.944;2023-02-01T16:27:54;35.58;;;7.25;;
29352;SDS011;16344;50.364;8.944;2023-02-01T16:30:19;28.05;;;4.75;;
29352;SDS011;16344;50.364;8.944;2023-02-01T16:32:58;29.00;;;5.20;;
29352;SDS011;16344;50.364;8.944;2023-02-01T16:35:36;29.25;;;7.75;;
29352;SDS011;16344;50.364;8.944;2023-02-01T16:38:03;26.27;;;4.72;;
29352;SDS011;16344;50.364;8.944;2023-02-01T16:40:39;52.42;;;16.83;;
29352;SDS011;16344;50.364;8.944;2023-02-01T16:43:15;16.58;;;4.20;;
29352;SDS011;16344;50.364;8.944;2023-02-01T16:45:41;43.08;;;6.78;;
29352;SDS011;16344;50.364;8.944;2023-02-01T16:48:10;27.13;;;6.85;;
29352;SDS011;16344;50.364;8.944;2023-02-01T16:50:41;24.77;;;4.43;;
29352;SDS011;16344;50.364;8.944;2023-02-01T16:53:08;34.55;;;5.22;;
29352;SDS011;16344;50.364;8.944;2023-02-01T16:55:37;25.20;;;7.72;;
29352;SDS011;16344;50.364;8.944;2023-02-01T16:58:03;28.23;;;5.53;;
29352;SDS011;16344;50.364;8.944;2023-02-01T17:00:28;23.92;;;6.10;;
29352;SDS011;16344;50.364;8.944;2023-02-01T17:02:55;38.85;;;10.68;;
29352;SDS011;16344;50.364;8.944;2023-02-01T17:05:21;25.63;;;4.75;;
29352;SDS011;16344;50.364;8.944;2023-02-01T17:07:46;30.95;;;5.07;;
29352;SDS011;16344;50.364;8.944;2023-02-01T17:10:18;42.17;;;6.88;;
29352;SDS011;16344;50.364;8.944;2023-02-01T17:12:48;32.72;;;5.35;;
29352;SDS011;16344;50.364;8.944;2023-02-01T17:15:14;30.88;;;4.88;;
29352;SDS011;16344;50.364;8.944;2023-02-01T17:17:40;28.25;;;5.15;;